createdAt,value
2022-09-18T00:02:02.856Z,1.97
2022-09-18T00:04:33.155Z,0.93
2022-09-18T00:07:10.832Z,3.03
2022-09-18T00:09:44.329Z,1.67
2022-09-18T00:12:16.188Z,1.83
2022-09-18T00:14:48.559Z,0.50
2022-09-18T00:17:28.746Z,2.70
2022-09-18T00:20:00.924Z,1.93
2022-09-18T00:22:34.003Z,0.53
2022-09-18T00:25:10.948Z,2.53
2022-09-18T00:27:49.783Z,1.50
2022-09-18T00:30:23.985Z,3.57
2022-09-18T00:32:56.524Z,3.43
2022-09-18T00:35:27.013Z,3.50
2022-09-18T00:38:06.527Z,1.20
2022-09-18T00:40:39.974Z,2.17
2022-09-18T00:43:32.160Z,5.50
2022-09-18T00:46:13.850Z,6.97
2022-09-18T00:48:48.325Z,5.30
2022-09-18T00:51:25.573Z,2.37
2022-09-18T00:53:58.260Z,2.03
2022-09-18T00:56:29.890Z,3.33
2022-09-18T00:59:09.941Z,3.40
2022-09-18T01:01:44.543Z,4.10
2022-09-18T01:04:17.769Z,4.30
2022-09-18T01:06:56.581Z,3.13
2022-09-18T01:09:35.914Z,4.03
2022-09-18T01:12:13.289Z,2.37
2022-09-18T01:14:48.489Z,2.27
2022-09-18T01:17:30.848Z,1.97
2022-09-18T01:20:19.210Z,2.83
2022-09-18T01:23:28.577Z,4.87
2022-09-18T01:26:29.887Z,2.77
2022-09-18T01:29:24.702Z,3.50
2022-09-18T01:32:01.298Z,2.93
2022-09-18T01:34:48.569Z,1.33
2022-09-18T01:37:36.198Z,1.33
2022-09-18T01:40:15.898Z,1.60
2022-09-18T01:43:07.770Z,1.03
2022-09-18T01:45:53.352Z,1.13
2022-09-18T01:48:44.888Z,0.40
2022-09-18T01:51:17.960Z,1.03
2022-09-18T01:53:59.086Z,1.10
2022-09-18T01:56:35.416Z,0.73
2022-09-18T01:59:19.953Z,0.37
2022-09-18T02:02:07.771Z,0.90
2022-09-18T02:04:42.757Z,0.83
2022-09-18T02:07:23.082Z,1.83
2022-09-18T02:09:56.387Z,0.40
2022-09-18T02:12:32.441Z,2.80
2022-09-18T02:15:17.203Z,1.80
2022-09-18T02:18:08.657Z,0.97
2022-09-18T02:20:47.673Z,1.60
2022-09-18T02:23:21.532Z,1.83
2022-09-18T02:26:01.091Z,2.03
2022-09-18T02:28:32.165Z,0.80
2022-09-18T02:31:04.114Z,5.27
2022-09-18T02:33:41.274Z,2.37
2022-09-18T02:36:26.036Z,2.97
2022-09-18T02:39:12.043Z,1.60
2022-09-18T02:41:55.230Z,4.33
2022-09-18T02:44:31.925Z,3.80
2022-09-18T02:47:16.280Z,2.83
2022-09-18T02:50:08.414Z,5.00
2022-09-18T02:52:51.166Z,5.77
2022-09-18T02:55:37.544Z,4.67
2022-09-18T02:58:17.469Z,7.27
2022-09-18T03:00:58.587Z,4.33
2022-09-18T03:03:32.202Z,7.13
2022-09-18T03:06:18.670Z,6.73
2022-09-18T03:09:02.380Z,6.47
2022-09-18T03:11:33.288Z,3.57
2022-09-18T03:14:15.418Z,11.33
2022-09-18T03:16:50.145Z,6.43
2022-09-18T03:19:25.247Z,8.90
2022-09-18T03:21:56.846Z,6.87
2022-09-18T03:24:31.060Z,4.87
2022-09-18T03:27:04.016Z,6.90
2022-09-18T03:29:42.997Z,6.50
2022-09-18T03:32:17.239Z,5.73
2022-09-18T03:35:06.475Z,3.80
2022-09-18T03:37:41.000Z,4.83
2022-09-18T03:40:16.106Z,8.10
2022-09-18T03:42:48.810Z,4.90
2022-09-18T03:45:18.400Z,7.03
2022-09-18T03:47:53.433Z,4.30
2022-09-18T03:50:26.225Z,5.93
2022-09-18T03:53:11.303Z,3.27
2022-09-18T03:56:01.801Z,4.40
2022-09-18T03:59:06.814Z,2.70
2022-09-18T04:02:11.606Z,5.70
2022-09-18T04:05:02.544Z,5.43
2022-09-18T04:08:00.134Z,6.73
2022-09-18T04:10:55.428Z,8.90
2022-09-18T04:13:27.189Z,6.00
2022-09-18T04:16:06.575Z,2.87
2022-09-18T04:18:43.823Z,6.50
2022-09-18T04:21:15.756Z,4.63
2022-09-18T04:23:51.045Z,2.93
2022-09-18T04:26:26.854Z,8.27
2022-09-18T04:29:05.113Z,7.93
2022-09-18T04:31:37.594Z,10.37
2022-09-18T04:34:20.161Z,5.10
2022-09-18T04:36:55.184Z,5.40
2022-09-18T04:39:31.372Z,6.00
2022-09-18T04:42:18.257Z,6.73
2022-09-18T04:44:54.840Z,6.47
2022-09-18T04:47:25.764Z,7.27
2022-09-18T04:50:01.263Z,3.60
2022-09-18T04:53:00.305Z,4.87
2022-09-18T04:55:33.706Z,3.40
2022-09-18T04:58:06.482Z,9.87
2022-09-18T05:00:40.738Z,8.73
2022-09-18T05:03:16.797Z,8.80
2022-09-18T05:05:53.531Z,6.80
2022-09-18T05:08:32.454Z,6.13
2022-09-18T05:11:11.894Z,5.27
2022-09-18T05:14:00.309Z,8.27
2022-09-18T05:16:44.300Z,6.27
2022-09-18T05:19:37.237Z,7.60
2022-09-18T05:22:27.733Z,5.43
2022-09-18T05:25:05.942Z,5.73
2022-09-18T05:27:38.517Z,4.40
2022-09-18T05:30:13.846Z,5.43
2022-09-18T05:33:07.939Z,3.70
2022-09-18T05:35:49.789Z,2.60
2022-09-18T05:38:27.873Z,8.43
2022-09-18T05:41:02.462Z,7.57
2022-09-18T05:43:36.233Z,5.33
2022-09-18T05:46:22.109Z,5.30
2022-09-18T05:49:00.262Z,6.57
2022-09-18T05:51:52.030Z,7.53
2022-09-18T05:54:23.231Z,6.23
2022-09-18T05:57:01.058Z,3.03
2022-09-18T05:59:41.586Z,6.00
2022-09-18T06:02:23.252Z,6.00
2022-09-18T06:05:28.645Z,6.93
2022-09-18T06:08:11.045Z,7.53
2022-09-18T06:10:47.504Z,5.47
2022-09-18T06:13:22.650Z,5.97
2022-09-18T06:15:59.478Z,3.03
2022-09-18T06:19:03.707Z,6.30
2022-09-18T06:21:36.924Z,4.03
2022-09-18T06:24:18.192Z,8.73
2022-09-18T06:27:07.683Z,2.80
2022-09-18T06:29:45.380Z,4.60
2022-09-18T06:32:20.919Z,6.37
2022-09-18T06:34:55.853Z,3.13
2022-09-18T06:37:35.044Z,2.70
2022-09-18T06:40:41.358Z,7.37
2022-09-18T06:43:41.423Z,4.97
2022-09-18T06:46:38.999Z,5.40
2022-09-18T06:49:21.558Z,2.63
2022-09-18T06:52:07.858Z,5.53
2022-09-18T06:54:45.397Z,7.40
2022-09-18T06:57:33.268Z,9.13
2022-09-18T07:00:07.790Z,3.30
2022-09-18T07:02:49.172Z,7.80
2022-09-18T07:05:37.512Z,3.60
2022-09-18T07:08:12.040Z,6.40
2022-09-18T07:11:18.290Z,3.17
2022-09-18T07:13:48.732Z,3.93
2022-09-18T07:19:29.110Z,8.97
2022-09-18T07:22:05.721Z,6.77
2022-09-18T07:25:06.417Z,8.57
2022-09-18T07:27:49.952Z,2.97
2022-09-18T07:30:35.532Z,5.53
2022-09-18T07:33:14.928Z,4.30
2022-09-18T07:35:51.360Z,3.87
2022-09-18T07:38:24.829Z,5.53
2022-09-18T07:41:04.575Z,5.47
2022-09-18T07:43:40.429Z,3.93
2022-09-18T07:46:15.823Z,7.43
2022-09-18T07:48:57.664Z,7.17
2022-09-18T07:51:40.602Z,5.10
2022-09-18T07:54:23.594Z,4.73
2022-09-18T07:57:26.594Z,5.30
2022-09-18T08:00:16.169Z,3.97
2022-09-18T08:02:48.464Z,4.97
2022-09-18T08:05:41.598Z,5.23
2022-09-18T08:08:18.974Z,4.67
2022-09-18T08:11:06.973Z,4.17
2022-09-18T08:13:51.038Z,2.77
2022-09-18T08:16:51.499Z,4.87
2022-09-18T08:19:39.050Z,3.50
2022-09-18T08:22:27.122Z,4.20
2022-09-18T08:25:11.535Z,7.47
2022-09-18T08:27:49.467Z,3.33
2022-09-18T08:30:43.430Z,5.37
2022-09-18T08:33:21.000Z,3.03
2022-09-18T08:35:56.642Z,6.83
2022-09-18T08:38:30.250Z,3.90
2022-09-18T08:41:23.437Z,6.13
2022-09-18T08:43:57.766Z,4.27
2022-09-18T08:46:30.632Z,5.90
2022-09-18T08:49:02.282Z,5.13
2022-09-18T08:51:34.459Z,4.77
2022-09-18T08:54:09.753Z,5.40
2022-09-18T08:57:15.516Z,3.20
2022-09-18T09:00:02.516Z,5.80
2022-09-18T09:02:39.244Z,4.33
2022-09-18T09:05:08.980Z,5.07
2022-09-18T09:07:43.353Z,2.83
2022-09-18T09:10:26.380Z,1.67
2022-09-18T09:12:58.706Z,5.20
2022-09-18T09:15:34.401Z,2.77
2022-09-18T09:18:19.449Z,7.43
2022-09-18T09:20:52.596Z,2.37
2022-09-18T09:23:28.504Z,4.30
2022-09-18T09:26:02.633Z,2.53
2022-09-18T09:29:08.161Z,5.57
2022-09-18T09:32:19.566Z,8.37
2022-09-18T09:35:01.828Z,4.97
2022-09-18T09:37:47.416Z,4.53
2022-09-18T09:40:19.571Z,4.27
2022-09-18T09:42:49.467Z,6.53
2022-09-18T09:45:22.254Z,4.67
2022-09-18T09:47:52.894Z,6.73
2022-09-18T09:50:32.736Z,3.67
2022-09-18T09:53:03.109Z,4.80
2022-09-18T09:55:32.256Z,4.30
2022-09-18T09:58:03.907Z,5.73
2022-09-18T10:00:34.966Z,4.47
2022-09-18T10:03:19.013Z,3.10
2022-09-18T10:05:54.005Z,6.70
2022-09-18T10:08:24.996Z,7.73
2022-09-18T10:10:55.181Z,3.60
2022-09-18T10:13:25.679Z,4.03
2022-09-18T10:15:59.160Z,3.80
2022-09-18T10:18:30.841Z,3.57
2022-09-18T10:21:03.965Z,3.47
2022-09-18T10:23:34.360Z,4.73
2022-09-18T10:26:04.245Z,4.27
2022-09-18T10:28:33.019Z,2.70
2022-09-18T10:31:04.564Z,5.57
2022-09-18T10:33:38.731Z,5.40
2022-09-18T10:36:22.438Z,1.77
2022-09-18T10:38:50.207Z,6.50
2022-09-18T10:41:34.069Z,6.20
2022-09-18T10:44:07.040Z,3.13
2022-09-18T10:46:37.102Z,4.03
2022-09-18T10:49:16.616Z,1.90
2022-09-18T10:51:46.244Z,3.50
2022-09-18T10:54:17.680Z,4.67
2022-09-18T10:56:54.719Z,3.53
2022-09-18T10:59:35.767Z,3.87
2022-09-18T11:02:05.851Z,3.63
2022-09-18T11:04:35.807Z,3.47
2022-09-18T11:07:07.491Z,3.30
2022-09-18T11:09:37.816Z,2.20
2022-09-18T11:12:13.501Z,2.53
2022-09-18T11:14:42.347Z,3.07
2022-09-18T11:17:21.188Z,2.50
2022-09-18T11:19:50.692Z,1.10
2022-09-18T11:22:34.319Z,1.97
2022-09-18T11:25:19.707Z,2.03
2022-09-18T11:27:51.057Z,1.80
2022-09-18T11:30:23.842Z,2.63
2022-09-18T11:32:53.387Z,3.23
2022-09-18T11:35:22.617Z,3.77
2022-09-18T11:37:53.316Z,1.77
2022-09-18T11:40:23.290Z,2.57
2022-09-18T11:42:52.589Z,2.47
2022-09-18T11:45:35.774Z,2.40
2022-09-18T11:48:06.753Z,3.07
2022-09-18T11:50:35.395Z,1.30
2022-09-18T11:53:09.516Z,4.03
2022-09-18T11:55:39.014Z,2.53
2022-09-18T11:58:11.091Z,0.70
2022-09-18T12:00:42.710Z,2.27
2022-09-18T12:03:15.122Z,2.93
2022-09-18T12:05:51.435Z,1.17
2022-09-18T12:08:23.426Z,2.13
2022-09-18T12:11:07.165Z,3.30
2022-09-18T12:13:45.265Z,2.07
2022-09-18T12:16:16.855Z,3.27
2022-09-18T12:18:48.781Z,2.07
2022-09-18T12:21:18.741Z,5.50
2022-09-18T12:23:47.507Z,1.63
2022-09-18T12:26:23.274Z,1.00
2022-09-18T12:29:05.569Z,0.80
2022-09-18T12:31:38.376Z,2.10
2022-09-18T12:34:10.936Z,1.77
2022-09-18T12:36:44.305Z,1.50
2022-09-18T12:39:21.956Z,4.70
2022-09-18T12:41:54.137Z,2.20
2022-09-18T12:44:29.891Z,1.00
2022-09-18T12:47:01.503Z,1.17
2022-09-18T12:49:34.753Z,2.43
2022-09-18T12:52:05.503Z,1.50
2022-09-18T12:54:45.226Z,2.93
2022-09-18T12:57:18.551Z,2.57
2022-09-18T12:59:54.956Z,2.07
2022-09-18T13:02:26.458Z,1.83
2022-09-18T13:04:57.433Z,3.10
2022-09-18T13:07:27.150Z,4.33
2022-09-18T13:09:58.384Z,1.53
2022-09-18T13:12:28.079Z,4.10
2022-09-18T13:14:58.749Z,4.10
2022-09-18T13:17:30.937Z,1.87
2022-09-18T13:20:00.506Z,2.93
2022-09-18T13:22:31.548Z,0.73
2022-09-18T13:25:00.681Z,3.43
2022-09-18T13:27:28.508Z,1.47
2022-09-18T13:29:58.891Z,3.50
2022-09-18T13:32:38.036Z,3.00
2022-09-18T13:35:07.308Z,3.43
2022-09-18T13:37:34.719Z,2.47
2022-09-18T13:40:10.510Z,2.60
2022-09-18T13:42:39.548Z,1.47
2022-09-18T13:45:08.272Z,1.17
2022-09-18T13:47:56.265Z,2.60
2022-09-18T13:50:23.596Z,2.13
2022-09-18T13:52:53.796Z,1.33
2022-09-18T13:55:50.386Z,2.10
2022-09-18T13:58:35.750Z,2.87
2022-09-18T14:01:04.707Z,1.13
2022-09-18T14:03:33.504Z,2.23
2022-09-18T14:06:20.949Z,1.37
2022-09-18T14:08:48.718Z,1.37
2022-09-18T14:11:24.096Z,1.87
2022-09-18T14:13:54.097Z,2.00
2022-09-18T14:16:26.664Z,1.30
2022-09-18T14:18:55.954Z,1.83
2022-09-18T14:21:26.535Z,2.53
2022-09-18T14:24:05.304Z,1.13
2022-09-18T14:26:51.084Z,3.00
2022-09-18T14:29:19.839Z,1.87
2022-09-18T14:31:48.460Z,1.73
2022-09-18T14:34:18.224Z,1.07
2022-09-18T14:36:46.519Z,1.67
2022-09-18T14:39:23.598Z,1.00
2022-09-18T14:41:51.417Z,0.90
2022-09-18T14:44:20.453Z,1.50
2022-09-18T14:46:55.612Z,1.03
2022-09-18T14:49:26.775Z,1.40
2022-09-18T14:52:03.532Z,1.83
2022-09-18T14:54:40.861Z,2.97
2022-09-18T14:57:13.131Z,1.27
2022-09-18T14:59:41.979Z,1.83
2022-09-18T15:02:12.999Z,1.80
2022-09-18T15:04:42.240Z,1.00
2022-09-18T15:07:15.971Z,1.80
2022-09-18T15:09:44.296Z,1.77
2022-09-18T15:12:15.444Z,2.47
2022-09-18T15:14:47.508Z,2.13
2022-09-18T15:17:19.971Z,1.60
2022-09-18T15:19:55.519Z,1.20
2022-09-18T15:22:23.603Z,1.70
2022-09-18T15:24:51.240Z,1.57
2022-09-18T15:27:19.196Z,1.53
2022-09-18T15:29:49.567Z,3.67
2022-09-18T15:32:20.924Z,1.33
2022-09-18T15:34:49.763Z,0.50
2022-09-18T15:37:18.596Z,0.60
2022-09-18T15:39:48.141Z,1.33
2022-09-18T15:42:20.219Z,0.93
2022-09-18T15:45:13.808Z,0.50
2022-09-18T15:47:43.223Z,1.43
2022-09-18T15:50:29.899Z,0.80
2022-09-18T15:53:01.796Z,0.60
2022-09-18T15:55:31.995Z,0.27
2022-09-18T15:58:00.564Z,0.50
2022-09-18T16:00:28.454Z,1.20
2022-09-18T16:02:58.713Z,0.30
2022-09-18T16:05:26.709Z,0.67
2022-09-18T16:07:57.376Z,0.97
2022-09-18T16:10:44.617Z,0.87
2022-09-18T16:13:26.939Z,0.50
2022-09-18T16:16:15.847Z,0.80
2022-09-18T16:18:52.311Z,0.30
2022-09-18T16:21:20.542Z,1.97
2022-09-18T16:23:50.402Z,0.50
2022-09-18T16:26:26.694Z,0.83
2022-09-18T16:28:55.695Z,0.30
2022-09-18T16:31:24.159Z,1.47
2022-09-18T16:33:57.057Z,0.50
2022-09-18T16:36:32.802Z,1.47
2022-09-18T16:39:01.434Z,0.73
2022-09-18T16:41:29.391Z,0.50
2022-09-18T16:43:56.804Z,0.77
2022-09-18T16:46:28.145Z,0.77
2022-09-18T16:48:57.061Z,1.80
2022-09-18T16:51:24.458Z,1.50
2022-09-18T16:53:51.850Z,0.50
2022-09-18T16:56:23.481Z,0.30
2022-09-18T16:58:51.225Z,1.07
2022-09-18T17:01:22.938Z,0.30
2022-09-18T17:03:50.661Z,1.87
2022-09-18T17:06:19.479Z,0.20
2022-09-18T17:08:47.035Z,0.30
2022-09-18T17:11:14.479Z,0.20
2022-09-18T17:13:41.855Z,1.07
2022-09-18T17:16:09.229Z,0.20
2022-09-18T17:18:36.755Z,0.30
2022-09-18T17:21:05.351Z,0.50
2022-09-18T17:23:34.074Z,0.23
2022-09-18T17:26:06.213Z,1.13
2022-09-18T17:28:33.616Z,0.70
2022-09-18T17:31:01.853Z,0.30
2022-09-18T17:33:29.360Z,0.20
2022-09-18T17:35:56.741Z,0.40
2022-09-18T17:38:24.081Z,0.17
2022-09-18T17:41:00.432Z,0.30
2022-09-18T17:43:28.159Z,0.37
2022-09-18T17:45:56.504Z,0.60
2022-09-18T17:48:24.109Z,0.40
2022-09-18T17:50:56.977Z,1.00
2022-09-18T17:53:24.489Z,0.57
2022-09-18T17:55:51.881Z,1.73
2022-09-18T17:58:20.701Z,0.20
2022-09-18T18:00:48.283Z,0.37
2022-09-18T18:03:16.220Z,2.10
2022-09-18T18:05:50.815Z,0.20
2022-09-18T18:08:18.144Z,0.50
2022-09-18T18:10:45.725Z,0.87
2022-09-18T18:13:16.915Z,0.60
2022-09-18T18:15:45.833Z,0.37
2022-09-18T18:18:13.570Z,0.33
2022-09-18T18:20:41.024Z,0.50
2022-09-18T18:23:11.501Z,0.30
2022-09-18T18:25:41.415Z,1.07
2022-09-18T18:28:11.932Z,0.80
2022-09-18T18:30:39.390Z,0.43
2022-09-18T18:33:08.129Z,0.30
2022-09-18T18:35:35.508Z,0.33
2022-09-18T18:38:02.897Z,2.63
2022-09-18T18:40:30.535Z,0.50
2022-09-18T18:42:57.979Z,0.50
2022-09-18T18:45:25.327Z,0.30
2022-09-18T18:47:52.640Z,0.40
2022-09-18T18:50:21.883Z,0.20
2022-09-18T18:52:49.820Z,1.13
2022-09-18T18:55:18.492Z,1.70
2022-09-18T18:57:45.907Z,1.17
2022-09-18T19:00:13.592Z,0.63
2022-09-18T19:02:40.941Z,0.33
2022-09-18T19:05:12.423Z,1.40
2022-09-18T19:07:41.185Z,0.40
2022-09-18T19:10:09.017Z,0.60
2022-09-18T19:12:36.339Z,0.60
2022-09-18T19:15:03.705Z,1.67
2022-09-18T19:17:31.254Z,0.73
2022-09-18T19:19:58.615Z,0.20
2022-09-18T19:22:25.942Z,2.47
2022-09-18T19:24:54.657Z,0.73
2022-09-18T19:27:21.997Z,0.77
2022-09-18T19:29:49.796Z,0.70
2022-09-18T19:32:17.637Z,1.97
2022-09-18T19:34:45.028Z,0.90
2022-09-18T19:37:16.699Z,3.93
2022-09-18T19:39:48.836Z,0.70
2022-09-18T19:42:17.519Z,1.50
2022-09-18T19:44:46.747Z,0.90
2022-09-18T19:47:17.915Z,1.20
2022-09-18T19:49:45.568Z,0.47
2022-09-18T19:52:16.129Z,0.40
2022-09-18T19:54:43.500Z,1.93
2022-09-18T19:57:11.124Z,0.70
2022-09-18T19:59:39.880Z,1.13
2022-09-18T20:02:08.603Z,1.17
2022-09-18T20:04:40.351Z,0.90
2022-09-18T20:07:08.671Z,0.67
2022-09-18T20:09:36.441Z,0.90
2022-09-18T20:12:04.181Z,1.00
2022-09-18T20:14:31.599Z,0.50
2022-09-18T20:17:00.620Z,0.40
2022-09-18T20:19:28.056Z,0.77
2022-09-18T20:21:55.410Z,1.90
2022-09-18T20:24:22.765Z,0.97
2022-09-18T20:26:51.093Z,0.30
2022-09-18T20:29:18.488Z,1.13
2022-09-18T20:31:46.619Z,2.23
2022-09-18T20:34:15.989Z,1.00
2022-09-18T20:36:43.350Z,1.80
2022-09-18T20:39:10.692Z,1.10
2022-09-18T20:41:40.553Z,1.27
2022-09-18T20:44:08.199Z,1.77
2022-09-18T20:46:37.522Z,3.50
2022-09-18T20:49:05.248Z,1.13
2022-09-18T20:51:35.867Z,1.17
2022-09-18T20:54:04.440Z,2.33
2022-09-18T20:56:32.746Z,0.93
2022-09-18T20:59:04.735Z,1.53
2022-09-18T21:01:34.539Z,1.97
2022-09-18T21:04:02.403Z,0.93
2022-09-18T21:06:31.641Z,1.03
2022-09-18T21:09:00.874Z,1.57
2022-09-18T21:11:29.121Z,1.00
2022-09-18T21:13:57.185Z,1.73
2022-09-18T21:16:25.823Z,1.30
2022-09-18T21:18:55.561Z,0.47
2022-09-18T21:21:23.441Z,0.83
2022-09-18T21:24:01.492Z,0.47
2022-09-18T21:26:31.559Z,1.20
2022-09-18T21:28:59.758Z,2.10
2022-09-18T21:31:27.212Z,1.17
2022-09-18T21:33:54.567Z,2.43
2022-09-18T21:36:22.591Z,1.80
2022-09-18T21:38:50.802Z,1.07
2022-09-18T21:41:18.662Z,0.60
2022-09-18T21:43:50.546Z,0.50
2022-09-18T21:46:19.928Z,1.20
2022-09-18T21:48:48.306Z,1.30
2022-09-18T21:51:16.497Z,0.70
2022-09-18T21:53:44.274Z,1.03
2022-09-18T21:56:13.165Z,2.00
2022-09-18T21:58:40.921Z,3.40
2022-09-18T22:01:14.319Z,2.13
2022-09-18T22:03:42.404Z,0.80
2022-09-18T22:06:09.737Z,2.50
2022-09-18T22:08:37.116Z,2.47
2022-09-18T22:11:04.825Z,1.33
2022-09-18T22:13:33.477Z,1.90
2022-09-18T22:16:01.462Z,1.20
2022-09-18T22:18:30.303Z,1.33
2022-09-18T22:20:58.005Z,0.97
2022-09-18T22:23:25.423Z,1.07
2022-09-18T22:25:53.507Z,0.97
2022-09-18T22:28:21.564Z,1.23
2022-09-18T22:30:48.971Z,3.73
2022-09-18T22:33:16.301Z,0.50
2022-09-18T22:35:44.967Z,1.30
2022-09-18T22:38:12.288Z,0.83
2022-09-18T22:40:39.692Z,2.00
2022-09-18T22:43:07.107Z,1.70
2022-09-18T22:45:34.444Z,1.30
2022-09-18T22:48:01.903Z,2.40
2022-09-18T22:50:29.292Z,2.27
2022-09-18T22:52:57.945Z,3.90
2022-09-18T22:55:25.348Z,6.43
2022-09-18T22:57:52.768Z,11.57
2022-09-18T23:00:20.104Z,9.37
2022-09-18T23:02:47.424Z,10.43
2022-09-18T23:05:14.847Z,13.80
2022-09-18T23:07:42.181Z,13.00
2022-09-18T23:10:12.096Z,13.70
2022-09-18T23:12:39.969Z,11.30
2022-09-18T23:15:07.654Z,11.63
2022-09-18T23:17:35.171Z,11.43
2022-09-18T23:20:02.812Z,9.47
2022-09-18T23:22:30.248Z,7.57
2022-09-18T23:24:57.564Z,8.27
2022-09-18T23:27:26.217Z,3.87
2022-09-18T23:29:53.533Z,4.90
2022-09-18T23:32:20.931Z,2.57
2022-09-18T23:34:48.243Z,2.33
2022-09-18T23:37:15.566Z,2.13
2022-09-18T23:39:42.908Z,2.27
2022-09-18T23:42:11.140Z,2.70
2022-09-18T23:44:39.839Z,1.73
2022-09-18T23:47:07.319Z,1.97
2022-09-18T23:49:35.170Z,1.37
2022-09-18T23:52:02.761Z,1.97
2022-09-18T23:54:31.136Z,1.70
2022-09-18T23:56:59.055Z,1.77
2022-09-18T23:59:26.975Z,2.20
